If you wish to contribute or participate in the discussions about articles you are invited to join SKYbrary as a registered user

 Actions

Marechal Cunha Machado International Airport

From SKYbrary Wiki

SBSL
Airport
ICAO: SBSL – IATA: SLZ
Summary
Name Marechal Cunha Machado International Airport
Region South America and Caribbean
Territory Brazil BR.gif
Location São Luís, Maranhão
Serving São Luís
Elevation 54.254 m
178 ft54.254 m
Coordinates 2° 35' 12.98" S, 44° 14' 10.00" W
Runways
Designator Length Width Surface ROPS
6/24 2386 m7,828.084 ft
45 m147.638 ft
ASP yes/yes
9/27 1464 m4,803.15 ft
45 m147.638 ft
ASP yes/yes


METAR
Observation SBSL 130300Z 05005KT CAVOK 27/23 Q1011
Station Sao Luiz Aeroporto
Date/Time 13 October 2019 03:00:00
Wind direction 50°
Wind speed 05 kts
Lowest cloud amount clouds and visibility OK
Temperature 27°C
Dew point 23°C
Humidity 78%
QNH 1011 hPa
Weather condition n/a

Marechal Cunha Machado International Airport (IATA: SLZ, ICAO: SBSL), formerly called Tirirical Airport, is the airport serving São Luís, Brazil. Since 17 October 1985 the airport is named after Marechal Cunha Machado.

Climatology

Tropical savanna climate (Köppen climate classification Aw)

Maps

Terrain

Loading map...

Airport Layout

Loading map...


Accidents & Serious Incidents at or in vicinity of SBSL

None on SKYbrary